Shache, China
Current Conditions -  °F | °C
As of 11:00 AM on Wednesday 22 Oct 2014 (Local Time) from ZWSH Reporting Station
Clear Clear  
Wind Chill: 61°   Ceiling: Unl
Heat Index: 61°   Visibility: 6mi
Dew Point: 25°   Wind: 7mph
Humidity: 25%   Direction: 290°WNW
Pressure: 30.21"   Gusts: NA
Location:  38.42°N, 77.25°E
Report Text: ZWSH 220300Z 29003MPS CAVOK 16/M04 Q1023 NOSIG
Loading
Personal Weather Stations






























Interactive Weather Map
Tropical Storm Tracking
New forecast layout! Learn more

10-Day Weather Forecast

Advertisements
Track Severe Weather on mobile